sensor_id;sensor_type;location;lat;lon;timestamp;pressure;altitude;pressure_sealevel;temperature;humidity
33288;BME280;19657;50.452;30.372;2024-03-02T00:02:31;140895.20;;;-5.70;100.00
33288;BME280;19657;50.452;30.372;2024-03-02T00:05:19;140895.22;;;-5.70;100.00
33288;BME280;19657;50.452;30.372;2024-03-02T00:08:06;140892.47;;;-5.71;100.00
33288;BME280;19657;50.452;30.372;2024-03-02T00:10:57;140889.53;;;-5.72;100.00
33288;BME280;19657;50.452;30.372;2024-03-02T00:13:45;140890.03;;;-5.72;100.00
33288;BME280;19657;50.452;30.372;2024-03-02T00:16:32;140885.08;;;-5.74;100.00
33288;BME280;19657;50.452;30.372;2024-03-02T00:19:18;140879.88;;;-5.76;100.00
33288;BME280;19657;50.452;30.372;2024-03-02T00:22:04;140872.22;;;-5.79;100.00
33288;BME280;19657;50.452;30.372;2024-03-02T00:24:49;140866.03;;;-5.81;100.00
33288;BME280;19657;50.452;30.372;2024-03-02T00:27:35;140857.88;;;-5.85;100.00
33288;BME280;19657;50.452;30.372;2024-03-02T00:33:22;140837.41;;;-5.94;100.00
33288;BME280;19657;50.452;30.372;2024-03-02T00:36:10;140830.97;;;-5.96;100.00
33288;BME280;19657;50.452;30.372;2024-03-02T00:38:56;140827.28;;;-5.98;100.00
33288;BME280;19657;50.452;30.372;2024-03-02T00:41:42;140822.06;;;-6.00;100.00
33288;BME280;19657;50.452;30.372;2024-03-02T00:44:29;140819.58;;;-6.01;100.00
33288;BME280;19657;50.452;30.372;2024-03-02T00:47:20;140810.70;;;-6.04;100.00
33288;BME280;19657;50.452;30.372;2024-03-02T00:50:07;140801.80;;;-6.08;100.00
33288;BME280;19657;50.452;30.372;2024-03-02T00:53:05;140788.70;;;-6.14;100.00
33288;BME280;19657;50.452;30.372;2024-03-02T00:55:51;140779.55;;;-6.18;100.00
33288;BME280;19657;50.452;30.372;2024-03-02T00:58:37;140774.34;;;-6.20;100.00
33288;BME280;19657;50.452;30.372;2024-03-02T01:01:23;140764.97;;;-6.23;100.00
33288;BME280;19657;50.452;30.372;2024-03-02T01:04:09;140754.09;;;-6.28;100.00
33288;BME280;19657;50.452;30.372;2024-03-02T01:06:54;140749.16;;;-6.30;100.00
33288;BME280;19657;50.452;30.372;2024-03-02T01:09:40;140742.25;;;-6.33;100.00
33288;BME280;19657;50.452;30.372;2024-03-02T01:12:27;140736.56;;;-6.36;100.00
33288;BME280;19657;50.452;30.372;2024-03-02T01:15:13;140731.36;;;-6.37;100.00
33288;BME280;19657;50.452;30.372;2024-03-02T01:17:58;140727.16;;;-6.39;100.00
33288;BME280;19657;50.452;30.372;2024-03-02T01:20:43;140716.78;;;-6.43;100.00
33288;BME280;19657;50.452;30.372;2024-03-02T01:23:29;140708.64;;;-6.47;100.00
33288;BME280;19657;50.452;30.372;2024-03-02T01:26:14;140703.42;;;-6.49;100.00
33288;BME280;19657;50.452;30.372;2024-03-02T01:29:00;140705.17;;;-6.48;100.00
33288;BME280;19657;50.452;30.372;2024-03-02T01:31:45;140701.72;;;-6.50;100.00
33288;BME280;19657;50.452;30.372;2024-03-02T01:34:31;140695.28;;;-6.52;100.00
33288;BME280;19657;50.452;30.372;2024-03-02T01:37:17;140688.88;;;-6.55;100.00
33288;BME280;19657;50.452;30.372;2024-03-02T01:40:03;140678.98;;;-6.59;100.00
33288;BME280;19657;50.452;30.372;2024-03-02T01:42:54;140671.31;;;-6.62;100.00
33288;BME280;19657;50.452;30.372;2024-03-02T01:45:41;140668.38;;;-6.63;100.00
33288;BME280;19657;50.452;30.372;2024-03-02T01:48:27;140662.17;;;-6.66;100.00
33288;BME280;19657;50.452;30.372;2024-03-02T01:51:12;140652.55;;;-6.70;100.00
33288;BME280;19657;50.452;30.372;2024-03-02T01:53:58;140649.34;;;-6.71;100.00
33288;BME280;19657;50.452;30.372;2024-03-02T01:56:44;140646.13;;;-6.73;100.00
33288;BME280;19657;50.452;30.372;2024-03-02T01:59:30;140647.84;;;-6.72;100.00
33288;BME280;19657;50.452;30.372;2024-03-02T02:02:16;140643.91;;;-6.73;100.00
33288;BME280;19657;50.452;30.372;2024-03-02T02:05:03;140639.69;;;-6.75;100.00
33288;BME280;19657;50.452;30.372;2024-03-02T02:07:49;140636.25;;;-6.77;100.00
33288;BME280;19657;50.452;30.372;2024-03-02T02:10:36;140632.30;;;-6.79;100.00
33288;BME280;19657;50.452;30.372;2024-03-02T02:13:21;140631.56;;;-6.79;100.00
33288;BME280;19657;50.452;30.372;2024-03-02T02:16:07;140628.09;;;-6.81;100.00
33288;BME280;19657;50.452;30.372;2024-03-02T02:18:53;140626.86;;;-6.81;100.00
33288;BME280;19657;50.452;30.372;2024-03-02T02:21:42;140618.95;;;-6.84;100.00
33288;BME280;19657;50.452;30.372;2024-03-02T02:24:28;140610.08;;;-6.88;100.00
33288;BME280;19657;50.452;30.372;2024-03-02T02:27:14;140607.34;;;-6.89;100.00
33288;BME280;19657;50.452;30.372;2024-03-02T02:30:00;140609.33;;;-6.88;100.00
33288;BME280;19657;50.452;30.372;2024-03-02T02:32:48;140612.05;;;-6.87;100.00
33288;BME280;19657;50.452;30.372;2024-03-02T02:35:35;140612.78;;;-6.87;100.00
33288;BME280;19657;50.452;30.372;2024-03-02T02:38:20;140605.38;;;-6.90;100.00
33288;BME280;19657;50.452;30.372;2024-03-02T02:41:06;140587.34;;;-6.97;100.00
33288;BME280;19657;50.452;30.372;2024-03-02T02:43:52;140577.95;;;-7.01;100.00
33288;BME280;19657;50.452;30.372;2024-03-02T02:46:38;140571.78;;;-7.03;100.00
33288;BME280;19657;50.452;30.372;2024-03-02T02:49:23;140565.84;;;-7.06;100.00
33288;BME280;19657;50.452;30.372;2024-03-02T02:52:10;140554.75;;;-7.10;100.00
33288;BME280;19657;50.452;30.372;2024-03-02T02:54:55;140548.31;;;-7.13;100.00
33288;BME280;19657;50.452;30.372;2024-03-02T02:57:42;140542.16;;;-7.15;100.00
33288;BME280;19657;50.452;30.372;2024-03-02T03:00:30;140537.94;;;-7.17;100.00
33288;BME280;19657;50.452;30.372;2024-03-02T03:03:15;140537.45;;;-7.17;100.00
33288;BME280;19657;50.452;30.372;2024-03-02T03:06:01;140530.80;;;-7.21;100.00
33288;BME280;19657;50.452;30.372;2024-03-02T03:08:47;140522.39;;;-7.24;100.00
33288;BME280;19657;50.452;30.372;2024-03-02T03:11:33;140513.75;;;-7.28;100.00
33288;BME280;19657;50.452;30.372;2024-03-02T03:14:19;140513.98;;;-7.28;100.00
33288;BME280;19657;50.452;30.372;2024-03-02T03:17:05;140511.53;;;-7.29;100.00
33288;BME280;19657;50.452;30.372;2024-03-02T03:19:52;140515.75;;;-7.27;100.00
33288;BME280;19657;50.452;30.372;2024-03-02T03:22:38;140515.75;;;-7.27;100.00
33288;BME280;19657;50.452;30.372;2024-03-02T03:25:23;140517.70;;;-7.26;100.00
33288;BME280;19657;50.452;30.372;2024-03-02T03:28:09;140522.16;;;-7.24;100.00
33288;BME280;19657;50.452;30.372;2024-03-02T03:30:55;140530.78;;;-7.21;100.00
33288;BME280;19657;50.452;30.372;2024-03-02T03:33:41;140529.80;;;-7.21;100.00
33288;BME280;19657;50.452;30.372;2024-03-02T03:36:26;140529.80;;;-7.21;100.00
33288;BME280;19657;50.452;30.372;2024-03-02T03:39:12;140534.72;;;-7.19;100.00
33288;BME280;19657;50.452;30.372;2024-03-02T03:41:57;140536.22;;;-7.18;100.00
33288;BME280;19657;50.452;30.372;2024-03-02T03:44:43;140532.03;;;-7.20;100.00
33288;BME280;19657;50.452;30.372;2024-03-02T03:47:29;140524.61;;;-7.23;100.00
33288;BME280;19657;50.452;30.372;2024-03-02T03:50:14;140514.50;;;-7.27;100.00
33288;BME280;19657;50.452;30.372;2024-03-02T03:53:00;140505.38;;;-7.31;100.00
33288;BME280;19657;50.452;30.372;2024-03-02T03:55:45;140491.05;;;-7.37;100.00
33288;BME280;19657;50.452;30.372;2024-03-02T03:58:32;140475.98;;;-7.43;100.00
33288;BME280;19657;50.452;30.372;2024-03-02T04:01:18;140467.09;;;-7.47;100.00
33288;BME280;19657;50.452;30.372;2024-03-02T04:04:04;140454.00;;;-7.52;100.00
33288;BME280;19657;50.452;30.372;2024-03-02T04:06:50;140441.42;;;-7.57;100.00
33288;BME280;19657;50.452;30.372;2024-03-02T04:09:35;140427.84;;;-7.63;100.00
33288;BME280;19657;50.452;30.372;2024-03-02T04:12:21;140410.33;;;-7.71;100.00
33288;BME280;19657;50.452;30.372;2024-03-02T04:15:07;140393.55;;;-7.78;100.00
33288;BME280;19657;50.452;30.372;2024-03-02T04:17:53;140378.75;;;-7.84;100.00
33288;BME280;19657;50.452;30.372;2024-03-02T04:20:39;140365.91;;;-7.89;100.00
33288;BME280;19657;50.452;30.372;2024-03-02T04:23:25;140352.59;;;-7.94;100.00
33288;BME280;19657;50.452;30.372;2024-03-02T04:26:11;140344.92;;;-7.97;100.00
33288;BME280;19657;50.452;30.372;2024-03-02T04:28:57;140346.16;;;-7.97;100.00
33288;BME280;19657;50.452;30.372;2024-03-02T04:31:42;140346.41;;;-7.97;100.00
33288;BME280;19657;50.452;30.372;2024-03-02T04:34:28;140346.89;;;-7.97;100.00
33288;BME280;19657;50.452;30.372;2024-03-02T04:37:14;140343.70;;;-7.98;100.00
33288;BME280;19657;50.452;30.372;2024-03-02T04:40:00;140342.45;;;-7.99;100.00
33288;BME280;19657;50.452;30.372;2024-03-02T04:42:45;140339.25;;;-8.00;100.00
33288;BME280;19657;50.452;30.372;2024-03-02T04:45:31;140330.88;;;-8.03;100.00
33288;BME280;19657;50.452;30.372;2024-03-02T04:48:17;140334.30;;;-8.02;100.00
33288;BME280;19657;50.452;30.372;2024-03-02T04:51:03;140331.61;;;-8.03;100.00
33288;BME280;19657;50.452;30.372;2024-03-02T04:53:48;140327.66;;;-8.05;100.00
33288;BME280;19657;50.452;30.372;2024-03-02T04:56:37;140348.88;;;-7.96;100.00
33288;BME280;19657;50.452;30.372;2024-03-02T04:59:29;140400.95;;;-7.74;100.00
33288;BME280;19657;50.452;30.372;2024-03-02T05:02:15;140463.39;;;-7.48;100.00
33288;BME280;19657;50.452;30.372;2024-03-02T05:05:01;140549.05;;;-7.13;100.00
33288;BME280;19657;50.452;30.372;2024-03-02T05:07:47;140621.17;;;-6.83;100.00
33288;BME280;19657;50.452;30.372;2024-03-02T05:10:33;140715.30;;;-6.44;100.00
33288;BME280;19657;50.452;30.372;2024-03-02T05:13:18;140804.03;;;-6.07;100.00
33288;BME280;19657;50.452;30.372;2024-03-02T05:16:06;140918.47;;;-5.60;100.00
33288;BME280;19657;50.452;30.372;2024-03-02T05:18:52;140986.47;;;-5.32;100.00
33288;BME280;19657;50.452;30.372;2024-03-02T05:21:38;141037.70;;;-5.11;100.00
33288;BME280;19657;50.452;30.372;2024-03-02T05:24:24;141124.53;;;-4.75;100.00
33288;BME280;19657;50.452;30.372;2024-03-02T05:27:12;141216.38;;;-4.37;100.00
33288;BME280;19657;50.452;30.372;2024-03-02T05:29:58;141286.45;;;-4.08;100.00
33288;BME280;19657;50.452;30.372;2024-03-02T05:32:44;141410.83;;;-3.56;100.00
33288;BME280;19657;50.452;30.372;2024-03-02T05:35:30;141510.94;;;-3.15;100.00
33288;BME280;19657;50.452;30.372;2024-03-02T05:38:15;141548.84;;;-2.99;100.00
33288;BME280;19657;50.452;30.372;2024-03-02T05:41:02;141614.08;;;-2.72;98.85
33288;BME280;19657;50.452;30.372;2024-03-02T05:43:47;141736.34;;;-2.22;95.74
33288;BME280;19657;50.452;30.372;2024-03-02T05:46:33;141832.38;;;-1.82;91.30
33288;BME280;19657;50.452;30.372;2024-03-02T05:49:21;141897.66;;;-1.55;87.80
33288;BME280;19657;50.452;30.372;2024-03-02T05:52:07;142020.05;;;-1.05;81.63
33288;BME280;19657;50.452;30.372;2024-03-02T05:54:52;142182.78;;;-0.38;76.20
33288;BME280;19657;50.452;30.372;2024-03-02T05:57:38;142316.28;;;0.17;72.77
33288;BME280;19657;50.452;30.372;2024-03-02T06:00:35;142463.75;;;0.78;68.36
33288;BME280;19657;50.452;30.372;2024-03-02T06:03:21;142541.84;;;1.10;65.68
33288;BME280;19657;50.452;30.372;2024-03-02T06:06:06;142627.22;;;1.45;63.99
33288;BME280;19657;50.452;30.372;2024-03-02T06:08:53;142590.91;;;1.30;61.78
33288;BME280;19657;50.452;30.372;2024-03-02T06:11:40;142496.08;;;0.91;62.23
33288;BME280;19657;50.452;30.372;2024-03-02T06:14:26;142525.92;;;1.03;62.77
33288;BME280;19657;50.452;30.372;2024-03-02T06:17:13;142616.02;;;1.40;60.55
33288;BME280;19657;50.452;30.372;2024-03-02T06:19:59;142742.50;;;1.92;59.19
33288;BME280;19657;50.452;30.372;2024-03-02T06:22:45;142940.78;;;2.74;56.49
33288;BME280;19657;50.452;30.372;2024-03-02T06:25:31;143077.88;;;3.30;54.38
33288;BME280;19657;50.452;30.372;2024-03-02T06:28:17;143252.70;;;4.02;52.17
33288;BME280;19657;50.452;30.372;2024-03-02T06:31:02;143328.05;;;4.33;50.80
33288;BME280;19657;50.452;30.372;2024-03-02T06:33:48;143481.31;;;4.96;47.66
33288;BME280;19657;50.452;30.372;2024-03-02T06:36:34;143474.83;;;4.93;46.49
33288;BME280;19657;50.452;30.372;2024-03-02T06:39:20;143502.30;;;5.04;46.61
33288;BME280;19657;50.452;30.372;2024-03-02T06:42:06;143551.48;;;5.24;45.43
33288;BME280;19657;50.452;30.372;2024-03-02T06:44:51;143582.22;;;5.37;44.58
33288;BME280;19657;50.452;30.372;2024-03-02T06:47:37;143555.73;;;5.26;44.77
33288;BME280;19657;50.452;30.372;2024-03-02T06:50:23;143510.03;;;5.08;44.70
33288;BME280;19657;50.452;30.372;2024-03-02T06:53:08;143552.48;;;5.25;44.73
33288;BME280;19657;50.452;30.372;2024-03-02T06:55:54;143671.16;;;5.73;43.35
33288;BME280;19657;50.452;30.372;2024-03-02T06:58:39;143719.16;;;5.93;43.52
33288;BME280;19657;50.452;30.372;2024-03-02T07:01:25;144090.00;;;7.45;41.29
33288;BME280;19657;50.452;30.372;2024-03-02T07:04:12;144291.97;;;8.27;38.31
33288;BME280;19657;50.452;30.372;2024-03-02T07:06:57;144242.41;;;8.07;37.73
33288;BME280;19657;50.452;30.372;2024-03-02T07:09:43;144184.84;;;7.84;38.35
33288;BME280;19657;50.452;30.372;2024-03-02T07:12:29;144217.86;;;7.97;37.14
33288;BME280;19657;50.452;30.372;2024-03-02T07:15:15;143947.66;;;6.86;38.38
33288;BME280;19657;50.452;30.372;2024-03-02T07:18:13;143738.41;;;6.01;39.60
33288;BME280;19657;50.452;30.372;2024-03-02T07:20:58;143566.22;;;5.30;41.00
33288;BME280;19657;50.452;30.372;2024-03-02T07:23:46;143428.41;;;4.74;42.33
33288;BME280;19657;50.452;30.372;2024-03-02T07:26:32;143491.56;;;5.00;42.39
33288;BME280;19657;50.452;30.372;2024-03-02T07:29:20;143652.41;;;5.66;41.32
33288;BME280;19657;50.452;30.372;2024-03-02T07:32:07;143549.48;;;5.23;41.35
33288;BME280;19657;50.452;30.372;2024-03-02T07:34:53;143550.48;;;5.24;41.64
33288;BME280;19657;50.452;30.372;2024-03-02T07:37:39;143752.66;;;6.07;41.23
33288;BME280;19657;50.452;30.372;2024-03-02T07:40:28;144100.75;;;7.49;39.47
33288;BME280;19657;50.452;30.372;2024-03-02T07:43:14;144378.16;;;8.62;37.47
33288;BME280;19657;50.452;30.372;2024-03-02T07:45:59;144620.69;;;9.62;35.55
33288;BME280;19657;50.452;30.372;2024-03-02T07:48:45;144745.80;;;10.13;34.19
33288;BME280;19657;50.452;30.372;2024-03-02T07:51:30;144748.06;;;10.13;33.71
33288;BME280;19657;50.452;30.372;2024-03-02T07:54:16;144791.97;;;10.32;33.17
33288;BME280;19657;50.452;30.372;2024-03-02T07:57:01;144773.91;;;10.24;33.03
33288;BME280;19657;50.452;30.372;2024-03-02T07:59:47;144680.34;;;9.86;33.68
33288;BME280;19657;50.452;30.372;2024-03-02T08:02:33;144805.02;;;10.37;33.14
33288;BME280;19657;50.452;30.372;2024-03-02T08:05:18;144905.36;;;10.78;32.59
33288;BME280;19657;50.452;30.372;2024-03-02T08:08:06;144903.38;;;10.77;31.94
33288;BME280;19657;50.452;30.372;2024-03-02T08:10:52;144789.72;;;10.31;32.20
33288;BME280;19657;50.452;30.372;2024-03-02T08:13:38;144738.53;;;10.10;32.74
33288;BME280;19657;50.452;30.372;2024-03-02T08:16:23;144690.89;;;9.90;32.71
33288;BME280;19657;50.452;30.372;2024-03-02T08:19:11;144571.33;;;9.41;33.17
33288;BME280;19657;50.452;30.372;2024-03-02T08:21:57;144325.05;;;8.41;34.25
33288;BME280;19657;50.452;30.372;2024-03-02T08:24:45;144095.72;;;7.47;35.91
33288;BME280;19657;50.452;30.372;2024-03-02T08:27:31;144116.03;;;7.55;36.12
33288;BME280;19657;50.452;30.372;2024-03-02T08:30:17;144240.91;;;8.06;35.67
33288;BME280;19657;50.452;30.372;2024-03-02T08:33:04;144265.92;;;8.17;34.73
33288;BME280;19657;50.452;30.372;2024-03-02T08:35:51;144026.42;;;7.19;36.14
33288;BME280;19657;50.452;30.372;2024-03-02T08:38:37;144020.92;;;7.17;36.50
33288;BME280;19657;50.452;30.372;2024-03-02T08:41:23;144046.20;;;7.27;36.20
33288;BME280;19657;50.452;30.372;2024-03-02T08:44:09;144014.92;;;7.14;36.33
33288;BME280;19657;50.452;30.372;2024-03-02T08:46:56;143762.63;;;6.11;37.28
33288;BME280;19657;50.452;30.372;2024-03-02T08:49:41;143328.83;;;4.33;39.99
33288;BME280;19657;50.452;30.372;2024-03-02T08:52:26;143015.55;;;3.04;43.07
33288;BME280;19657;50.452;30.372;2024-03-02T08:55:13;143029.03;;;3.10;43.73
33288;BME280;19657;50.452;30.372;2024-03-02T08:57:59;143102.30;;;3.40;43.34
33288;BME280;19657;50.452;30.372;2024-03-02T09:00:47;143102.06;;;3.40;43.51
33288;BME280;19657;50.452;30.372;2024-03-02T09:03:34;143065.16;;;3.25;43.78
33288;BME280;19657;50.452;30.372;2024-03-02T09:06:21;142932.05;;;2.70;44.66
33288;BME280;19657;50.452;30.372;2024-03-02T09:09:07;142746.75;;;1.94;46.62
33288;BME280;19657;50.452;30.372;2024-03-02T09:11:53;142619.98;;;1.42;47.99
33288;BME280;19657;50.452;30.372;2024-03-02T09:14:40;142564.53;;;1.19;48.61
33288;BME280;19657;50.452;30.372;2024-03-02T09:17:26;142508.78;;;0.96;49.30
33288;BME280;19657;50.452;30.372;2024-03-02T09:20:13;142406.78;;;0.54;50.09
33288;BME280;19657;50.452;30.372;2024-03-02T09:22:59;142291.16;;;0.07;51.21
33288;BME280;19657;50.452;30.372;2024-03-02T09:25:44;142196.20;;;-0.33;52.53
33288;BME280;19657;50.452;30.372;2024-03-02T09:28:30;142107.00;;;-0.69;54.26
33288;BME280;19657;50.452;30.372;2024-03-02T09:31:16;142061.03;;;-0.88;54.90
33288;BME280;19657;50.452;30.372;2024-03-02T09:34:01;142036.45;;;-0.98;56.08
33288;BME280;19657;50.452;30.372;2024-03-02T09:36:47;142032.72;;;-1.00;56.00
33288;BME280;19657;50.452;30.372;2024-03-02T09:39:34;142063.28;;;-0.87;55.69
33288;BME280;19657;50.452;30.372;2024-03-02T09:42:20;142058.08;;;-0.89;56.16
33288;BME280;19657;50.452;30.372;2024-03-02T09:45:09;142014.33;;;-1.07;56.67
33288;BME280;19657;50.452;30.372;2024-03-02T09:47:58;142036.22;;;-0.98;57.06
33288;BME280;19657;50.452;30.372;2024-03-02T09:50:44;142034.72;;;-0.99;56.84
33288;BME280;19657;50.452;30.372;2024-03-02T09:53:32;142014.58;;;-1.07;57.37
33288;BME280;19657;50.452;30.372;2024-03-02T09:56:18;142026.02;;;-1.02;57.15
33288;BME280;19657;50.452;30.372;2024-03-02T09:59:07;142055.08;;;-0.91;57.07
33288;BME280;19657;50.452;30.372;2024-03-02T10:02:00;142095.56;;;-0.74;56.33
33288;BME280;19657;50.452;30.372;2024-03-02T10:04:48;142106.75;;;-0.69;56.16
33288;BME280;19657;50.452;30.372;2024-03-02T10:07:34;142153.22;;;-0.50;56.05
33288;BME280;19657;50.452;30.372;2024-03-02T10:10:21;142176.08;;;-0.41;55.01
33288;BME280;19657;50.452;30.372;2024-03-02T10:13:09;142147.48;;;-0.52;55.13
33288;BME280;19657;50.452;30.372;2024-03-02T10:15:55;142167.86;;;-0.44;55.38
33288;BME280;19657;50.452;30.372;2024-03-02T10:18:41;142227.77;;;-0.20;54.84
33288;BME280;19657;50.452;30.372;2024-03-02T10:21:28;142267.53;;;-0.03;54.22
33288;BME280;19657;50.452;30.372;2024-03-02T10:24:14;142290.91;;;0.06;53.96
33288;BME280;19657;50.452;30.372;2024-03-02T10:27:00;142291.17;;;0.07;54.08
33288;BME280;19657;50.452;30.372;2024-03-02T10:29:46;142254.09;;;-0.08;54.42
33288;BME280;19657;50.452;30.372;2024-03-02T10:32:33;142249.38;;;-0.10;54.57
33288;BME280;19657;50.452;30.372;2024-03-02T10:35:20;142287.42;;;0.05;54.26
33288;BME280;19657;50.452;30.372;2024-03-02T10:38:06;142277.73;;;0.01;54.48
33288;BME280;19657;50.452;30.372;2024-03-02T10:40:51;142296.61;;;0.09;54.29
33288;BME280;19657;50.452;30.372;2024-03-02T10:43:38;142326.45;;;0.21;53.44
33288;BME280;19657;50.452;30.372;2024-03-02T10:46:28;142360.03;;;0.35;52.88
33288;BME280;19657;50.452;30.372;2024-03-02T10:49:15;142372.72;;;0.40;52.80
33288;BME280;19657;50.452;30.372;2024-03-02T10:52:01;142367.23;;;0.38;52.01
33288;BME280;19657;50.452;30.372;2024-03-02T10:54:47;142328.20;;;0.22;52.26
33288;BME280;19657;50.452;30.372;2024-03-02T10:57:50;142300.84;;;0.11;52.30
33288;BME280;19657;50.452;30.372;2024-03-02T11:00:38;142305.08;;;0.12;52.63
33288;BME280;19657;50.452;30.372;2024-03-02T11:03:25;142291.66;;;0.07;52.79
33288;BME280;19657;50.452;30.372;2024-03-02T11:06:11;142288.42;;;0.05;53.03
33288;BME280;19657;50.452;30.372;2024-03-02T11:09:00;142342.38;;;0.28;53.19
33288;BME280;19657;50.452;30.372;2024-03-02T11:11:56;142412.25;;;0.56;53.16
33288;BME280;19657;50.452;30.372;2024-03-02T11:14:45;142431.66;;;0.64;52.74
33288;BME280;19657;50.452;30.372;2024-03-02T11:17:31;142438.59;;;0.67;52.65
33288;BME280;19657;50.452;30.372;2024-03-02T11:20:17;142463.98;;;0.78;52.58
33288;BME280;19657;50.452;30.372;2024-03-02T11:23:09;142503.30;;;0.94;52.02
33288;BME280;19657;50.452;30.372;2024-03-02T11:25:55;142471.92;;;0.81;51.80
33288;BME280;19657;50.452;30.372;2024-03-02T11:29:00;142447.56;;;0.71;52.66
33288;BME280;19657;50.452;30.372;2024-03-02T11:31:58;142482.16;;;0.85;52.18
33288;BME280;19657;50.452;30.372;2024-03-02T11:34:49;142496.83;;;0.91;52.05
33288;BME280;19657;50.452;30.372;2024-03-02T11:37:35;142431.64;;;0.64;51.46
33288;BME280;19657;50.452;30.372;2024-03-02T11:40:22;142381.39;;;0.44;51.42
33288;BME280;19657;50.452;30.372;2024-03-02T11:43:09;142369.97;;;0.39;52.06
33288;BME280;19657;50.452;30.372;2024-03-02T11:45:59;142407.28;;;0.54;51.50
33288;BME280;19657;50.452;30.372;2024-03-02T11:48:46;142462.48;;;0.77;50.75
33288;BME280;19657;50.452;30.372;2024-03-02T11:51:33;142430.16;;;0.64;49.52
33288;BME280;19657;50.452;30.372;2024-03-02T11:54:20;142435.63;;;0.66;50.34
33288;BME280;19657;50.452;30.372;2024-03-02T11:57:07;142431.41;;;0.64;48.80
33288;BME280;19657;50.452;30.372;2024-03-02T11:59:54;142390.84;;;0.48;49.19
33288;BME280;19657;50.452;30.372;2024-03-02T12:02:41;142350.06;;;0.31;49.86
33288;BME280;19657;50.452;30.372;2024-03-02T12:05:31;142309.80;;;0.14;50.66
33288;BME280;19657;50.452;30.372;2024-03-02T12:08:17;142321.97;;;0.19;51.18
33288;BME280;19657;50.452;30.372;2024-03-02T12:11:03;142315.75;;;0.17;51.78
33288;BME280;19657;50.452;30.372;2024-03-02T12:13:53;142354.30;;;0.33;52.01
33288;BME280;19657;50.452;30.372;2024-03-02T12:16:44;142411.75;;;0.56;52.03
33288;BME280;19657;50.452;30.372;2024-03-02T12:19:31;142472.44;;;0.81;51.68
33288;BME280;19657;50.452;30.372;2024-03-02T12:22:17;142515.50;;;0.99;51.42
33288;BME280;19657;50.452;30.372;2024-03-02T12:25:03;142504.80;;;0.95;51.66
33288;BME280;19657;50.452;30.372;2024-03-02T12:27:51;142488.36;;;0.88;52.15
33288;BME280;19657;50.452;30.372;2024-03-02T12:30:37;142505.53;;;0.95;52.31
33288;BME280;19657;50.452;30.372;2024-03-02T12:33:23;142501.56;;;0.93;52.81
33288;BME280;19657;50.452;30.372;2024-03-02T12:36:10;142488.59;;;0.88;53.30
33288;BME280;19657;50.452;30.372;2024-03-02T12:38:57;142418.70;;;0.59;54.15
33288;BME280;19657;50.452;30.372;2024-03-02T12:41:43;142409.50;;;0.55;54.55
33288;BME280;19657;50.452;30.372;2024-03-02T12:44:29;142430.91;;;0.64;54.57
33288;BME280;19657;50.452;30.372;2024-03-02T12:47:15;142444.58;;;0.70;54.30
33288;BME280;19657;50.452;30.372;2024-03-02T12:50:02;142433.88;;;0.65;54.61
33288;BME280;19657;50.452;30.372;2024-03-02T12:52:52;142418.70;;;0.59;54.86
33288;BME280;19657;50.452;30.372;2024-03-02T12:55:38;142429.91;;;0.64;54.94
33288;BME280;19657;50.452;30.372;2024-03-02T12:58:24;142451.30;;;0.73;54.59
33288;BME280;19657;50.452;30.372;2024-03-02T13:01:14;142376.94;;;0.42;55.21
33288;BME280;19657;50.452;30.372;2024-03-02T13:04:04;142323.72;;;0.20;55.86
33288;BME280;19657;50.452;30.372;2024-03-02T13:06:51;142280.45;;;0.02;56.39
33288;BME280;19657;50.452;30.372;2024-03-02T13:09:39;142198.67;;;-0.31;57.33
33288;BME280;19657;50.452;30.372;2024-03-02T13:12:25;142138.08;;;-0.56;58.29
33288;BME280;19657;50.452;30.372;2024-03-02T13:15:11;142115.44;;;-0.66;58.80
33288;BME280;19657;50.452;30.372;2024-03-02T13:18:03;142125.39;;;-0.61;58.54
33288;BME280;19657;50.452;30.372;2024-03-02T13:20:49;142132.84;;;-0.58;58.68
33288;BME280;19657;50.452;30.372;2024-03-02T13:23:35;142132.34;;;-0.59;58.68
33288;BME280;19657;50.452;30.372;2024-03-02T13:26:21;142138.05;;;-0.56;58.87
33288;BME280;19657;50.452;30.372;2024-03-02T13:29:06;142164.39;;;-0.45;58.84
33288;BME280;19657;50.452;30.372;2024-03-02T13:31:53;142190.73;;;-0.35;58.36
33288;BME280;19657;50.452;30.372;2024-03-02T13:34:39;142202.16;;;-0.30;57.93
33288;BME280;19657;50.452;30.372;2024-03-02T13:37:25;142217.83;;;-0.24;57.51
33288;BME280;19657;50.452;30.372;2024-03-02T13:40:10;142179.05;;;-0.40;58.02
33288;BME280;19657;50.452;30.372;2024-03-02T13:43:00;142126.11;;;-0.61;58.35
33288;BME280;19657;50.452;30.372;2024-03-02T13:45:45;142108.47;;;-0.69;58.89
33288;BME280;19657;50.452;30.372;2024-03-02T13:48:31;142082.41;;;-0.79;59.24
33288;BME280;19657;50.452;30.372;2024-03-02T13:51:17;142050.36;;;-0.93;59.56
33288;BME280;19657;50.452;30.372;2024-03-02T13:54:03;142023.78;;;-1.03;60.59
33288;BME280;19657;50.452;30.372;2024-03-02T13:56:48;141981.06;;;-1.21;61.54
33288;BME280;19657;50.452;30.372;2024-03-02T13:59:35;141965.67;;;-1.27;62.03
33288;BME280;19657;50.452;30.372;2024-03-02T14:02:21;141955.75;;;-1.32;62.14
33288;BME280;19657;50.452;30.372;2024-03-02T14:05:07;141943.09;;;-1.37;60.66
33288;BME280;19657;50.452;30.372;2024-03-02T14:07:56;141894.94;;;-1.57;59.83
33288;BME280;19657;50.452;30.372;2024-03-02T14:10:42;141850.23;;;-1.75;60.61
33288;BME280;19657;50.452;30.372;2024-03-02T14:13:28;141830.11;;;-1.83;60.92
33288;BME280;19657;50.452;30.372;2024-03-02T14:16:14;141830.89;;;-1.83;60.86
33288;BME280;19657;50.452;30.372;2024-03-02T14:19:00;141816.22;;;-1.89;61.08
33288;BME280;19657;50.452;30.372;2024-03-02T14:21:47;141800.36;;;-1.95;61.79
33288;BME280;19657;50.452;30.372;2024-03-02T14:24:33;141800.84;;;-1.95;62.27